Weather observations for the past three days for
Georgetown - Delaware Coastal Airport
Metric (Imperial)
Date Time (edt) Wind (kph) Vis. (km) Weather Sky Cond. Temperature (ºC) Relative Humidity Wind Chill (°C) Heat Index (°C) Pressure Precipitation (cm)
Air Dwpt 6 hour altimeter (cm) sea level (mb) 1 hr 3 hr 6 hr
Max. Min.
06 01:54 S 22 16.09 Fair CLR 18.9 12.8 21.1 18.3 68% 75.95 1012.6
06 00:54 S 22 16.09 Fair CLR 18.9 13.3 70% 75.97 1012.9
05 23:54 S 24 16.09 Fair CLR 18.9 13.3 70% 75.97 1012.8
05 22:54 S 28 G 48 16.09 Fair CLR 20 13.3 65% 75.97 1012.8
05 21:54 S 26 16.09 Fair CLR 20 12.8 63% 75.97 1012.8
05 20:54 S 28 G 43 16.09 Fair CLR 20.6 12.8 61% 75.95 1012.3
05 19:54 S 24 G 41 16.09 Fair CLR 21.7 11.7 28.9 21.7 53% 75.9 1011.7
05 18:54 S 26 G 39 16.09 Fair CLR 23.3 11.1 46% 75.9 1011.6
05 17:54 S 28 G 46 16.09 Fair CLR 25.6 11.1 40% 26 75.84 1011.2
05 16:54 S 33 G 54 16.09 Fair and Breezy CLR 27.8 7.8 28% 27 75.84 1011.1
05 15:54 SW 35 G 52 16.09 Fair and Breezy CLR 28.3 8.3 28% 27 75.9 1011.6
05 14:54 S 33 G 57 16.09 Fair and Breezy CLR 28.3 7.8 27% 27 75.92 1012.0
05 13:54 S 26 G 39 16.09 Fair CLR 27.8 8.9 28.3 18.9 31% 27 75.95 1012.4
05 12:54 SW 22 G 33 16.09 Fair CLR 27.2 10 34% 27 75.97 1012.8
05 11:54 SW 19 G 37 16.09 Fair CLR 25 10 39% 26 76.02 1013.3
05 10:54 S 24 16.09 Fair CLR 23.9 10 42% 25 76.02 1013.4
05 09:54 SW 22 G 39 16.09 Fair CLR 22.8 10 44% 76.02 1013.4
05 08:54 SW 22 16.09 Fair CLR 20.6 10 51% 76.02 1013.5
05 07:54 SW 20 16.09 Fair CLR 18.3 10.6 18.3 15.6 61% 76.02 1013.3
05 06:54 SW 19 16.09 A Few Clouds FEW120 16.7 10.6 67% 76 1013.1
05 05:54 SW 17 16.09 Fair CLR 16.1 10 67% 75.97 1012.7
05 04:54 SW 17 16.09 Fair CLR 17.2 10.6 65% 75.95 1012.3
05 03:54 SW 19 16.09 Fair CLR 17.2 10.6 65% 75.95 1012.4
05 02:54 SW 15 16.09 Fair CLR 16.1 11.1 72% 75.92 1012.2
05 01:54 SW 15 16.09 Fair CLR 16.1 11.1 19.4 16.1 72% 75.92 1012.2
05 00:54 S 15 16.09 Fair CLR 16.1 11.1 72% 75.95 1012.3
04 23:54 S 17 16.09 Fair CLR 16.7 11.1 70% 75.95 1012.5
04 22:54 S 19 16.09 Fair CLR 16.1 10.6 70% 75.95 1012.2
04 21:54 S 17 16.09 Fair CLR 16.7 10 65% 75.95 1012.3
04 20:54 S 19 16.09 Fair CLR 17.8 8.9 56% 75.9 1011.9
04 19:54 S 17 16.09 Fair CLR 20 8.3 24.4 20 47% 75.9 1011.7
04 18:54 S 22 G 39 16.09 Fair CLR 22.8 2.2 26% 75.84 1011.2
04 17:54 SW 24 G 35 16.09 Fair CLR 23.9 2.8 25% 25 75.87 1011.3
04 16:54 SW 22 G 39 16.09 Fair CLR 23.3 1.7 24% 75.87 1011.5
04 15:54 S 22 G 35 16.09 Fair CLR 24.4 3.3 25% 25 75.9 1011.8
04 14:54 SW 20 G 35 16.09 Fair CLR 22.8 1.7 25% 75.95 1012.5
04 13:54 S 31 G 41 16.09 Fair CLR 22.2 1.7 23.3 12.8 26% 75.97 1012.8
04 12:54 SW 17 G 39 16.09 Fair CLR 22.2 1.1 25% 76.05 1013.6
04 11:54 SW 19 G 41 16.09 Fair CLR 21.7 2.8 29% 76.07 1014.0
04 10:54 SW 19 G 35 16.09 Fair CLR 20.6 3.9 33% 76.1 1014.5
04 09:54 W 19 G 37 16.09 Fair CLR 17.8 6.1 46% 76.15 1015.1
04 08:54 SW 19 16.09 A Few Clouds FEW110 15 7.2 60% 76.2 1015.8
04 07:54 S 17 16.09 A Few Clouds FEW110 12.8 7.2 12.8 8.3 69% 76.23 1016.1
04 06:54 S 9 16.09 Overcast OVC120 10.6 6.7 77% 76.25 1016.5
04 05:54 S 7 16.09 Mostly Cloudy BKN120 10 6.7 80% 9 76.23 1016.3
04 04:54 S 15 16.09 Fair CLR 10 6.1 77% 8 76.25 1016.5
04 03:54 S 11 16.09 Fair CLR 9.4 5 74% 8 76.28 1016.7
04 02:54 SW 15 16.09 Fair CLR 8.9 2.2 63% 7 76.28 1016.9
04 01:54 S 13 16.09 Fair CLR 7.8 1.1 13.9 6.7 63% 6 76.25 1016.6
04 00:54 SW 9 16.09 Fair CLR 7.2 0.6 63% 6 76.28 1016.7
03 23:54 SW 7 16.09 Fair CLR 7.8 0 58% 7 76.23 1016.2
03 22:54 SW 7 16.09 Fair CLR 7.8 0 58% 7 76.23 1016.1
03 21:54 Calm 16.09 Fair CLR 7.2 0 61% 76.2 1016.0
03 20:54 Calm 16.09 Fair CLR 7.8 -0.6 56% 76.17 1015.5
03 19:54 SW 6 16.09 Fair CLR 13.9 -2.8 15.6 13.3 32% 76.12 1014.7
03 18:54 W 13 16.09 Fair CLR 15 -3.9 27% 76.1 1014.5
03 17:54 W 19 G 35 16.09 Fair CLR 15 -3.9 27% 76.1 1014.4
03 16:54 NW 19 G 37 16.09 Fair CLR 15 -4.4 26% 76.07 1014.3
03 15:54 W 26 G 43 16.09 Fair CLR 15 -5 25% 76.1 1014.4
03 14:54 W 22 G 43 16.09 Fair CLR 13.9 -5 27% 76.12 1014.8
03 13:54 W 15 G 37 16.09 A Few Clouds FEW070 13.3 -4.4 13.9 7.8 29% 76.12 1015.0
03 12:54 Calm 16.09 Partly Cloudy SCT065 12.8 -3.3 33% 76.15 1015.2
03 11:54 NW 19 G 41 16.09 Mostly Cloudy BKN060 11.7 -4.4 32% 76.17 1015.5
03 10:54 N 17 G 30 16.09 Mostly Cloudy BKN060 11.1 -2.8 38% 76.17 1015.5
03 09:54 NW 20 G 35 16.09 A Few Clouds FEW048 10.6 -2.2 41% 76.17 1015.5
03 08:54 NW 20 G 39 16.09 Partly Cloudy SCT070 8.3 -2.2 48% 5 76.17 1015.4
03 07:54 NW 19 G 37 16.09 Fair CLR 7.8 0 8.9 6.1 58% 5 76.1 1014.6
03 06:54 W 7 16.09 Fair CLR 6.1 0.6 68% 5 76.07 1014.2
03 05:54 W 11 16.09 Fair CLR 6.7 0.6 65% 5 76 1013.2
03 04:54 W 9 16.09 Fair CLR 6.7 0.6 65% 5 75.97 1012.7
03 03:54 NW 7 16.09 Fair CLR 7.2 0 61% 6 75.92 1012.2
03 02:54 Vrbl 11 16.09 Fair CLR 8.3 0 56% 7 75.9 1011.7
Date Time (edt) Wind (kph) Vis. (km) Weather Sky Cond. Air Dwpt Max. Min. Relative Humidity Wind Chill (°C) Heat Index (°C) altimeter (cm) sea level (mb) 1 hr 3 hr 6 hr
6 hour
Temperature (ºC) Pressure Precipitation (cm)